Eagle San Antonio — 9V9330 — position and weather

sailwx.info

Track history (hours):
 
Tides and Currents Weather Stations Pressure Air Temp Water Temp Dewpoint Dewpoint Depression Visibility Wind Speed Wind Dir Waves Ship Positions

Eagle San Antonio

Last reported at 2018-Jan-01 05:16 UTC. Time now 2018-Jan-22 15:59 UTC.
Position N 07°34' W 017°40'.
Warning: this ship's position is 21 days out of date.

Length 274 m; draft 9.3 m.

Type: Tanker. MMSI: 566453000.

Date/timePositionNaut miles runAvg speedWind from/ knotsBaromVisibWave heightAir tempDewpointWater temp
2018-Jan-01 05:16N 07°34' W 017°40'310.4
2018-Jan-01 04:59N 07°35' W 017°42'2610.3
2018-Jan-01 02:28N 07°53' W 018°01'7610.4
2017-Dec-31 19:10N 08°45' W 018°57'210.7
2017-Dec-31 19:01N 08°46' W 018°59'510.8
2017-Dec-31 18:30N 08°50' W 019°03'510.5
2017-Dec-31 18:00N 08°53' W 019°07'710.6
2017-Dec-31 17:20N 08°58' W 019°12'510.8
2017-Dec-31 16:50N 09°02' W 019°16'410.6
2017-Dec-31 16:26N 09°05' W 019°19'410.5
2017-Dec-31 16:00N 09°07' W 019°23'510.6
2017-Dec-31 15:30N 09°11' W 019°27'610.6
2017-Dec-31 14:58N 09°15' W 019°31'510.7
2017-Dec-31 14:30N 09°18' W 019°35'510.6
2017-Dec-31 14:00N 09°22' W 019°38'510.6
2017-Dec-31 13:30N 09°26' W 019°42'910.5
2017-Dec-31 12:40N 09°32' W 019°49'410.5
2017-Dec-31 12:17N 09°34' W 019°52'310.5
2017-Dec-31 11:58N 09°36' W 019°54'7310.2
2017-Dec-31 04:51N 10°45' W 020°20'  
2017-Dec-26 20:23N 27°40' W 015°19'410.5
2017-Dec-26 20:00N 27°44' W 015°17'510.3
2017-Dec-26 19:30N 27°49' W 015°15'510.3
2017-Dec-26 19:00N 27°54' W 015°13'5 9.6
2017-Dec-26 18:30N 27°58' W 015°12'510.5
2017-Dec-26 18:00N 28°02' W 015°16'611.4
2017-Dec-26 17:30N 28°07' W 015°20'1 2.3
2017-Dec-26 17:00N 28°08' W 015°21'2 4.7
2017-Dec-26 16:30N 28°09' W 015°20'611.4
2017-Dec-26 16:00N 28°15' W 015°17'713.1
2017-Dec-26 15:30N 28°21' W 015°16'713.4
2017-Dec-26 15:00N 28°28' W 015°15'713.2
2017-Dec-26 14:30N 28°34' W 015°14'713.0
2017-Dec-26 14:00N 28°41' W 015°12'613.0
2017-Dec-26 13:30N 28°47' W 015°11'  
Track history (hours):
 
Tides and Currents Weather Stations Pressure Air Temp Water Temp Dewpoint Dewpoint Depression Visibility Wind Speed Wind Dir Waves Ship Positions

Eagle San Antonio

Last reported at 2018-Jan-01 05:16 UTC. Time now 2018-Jan-22 15:59 UTC.
Position N 07°34' W 017°40'.
Warning: this ship's position is 21 days out of date.

Length 274 m; draft 9.3 m.

Type: Tanker. MMSI: 566453000.

Date/timePositionNaut miles runAvg speedWind from/ knotsBaromVisibWave heightAir tempDewpointWater temp
2018-Jan-01 05:16N 07°34' W 017°40'310.4
2018-Jan-01 04:59N 07°35' W 017°42'2610.3
2018-Jan-01 02:28N 07°53' W 018°01'7610.4
2017-Dec-31 19:10N 08°45' W 018°57'210.7
2017-Dec-31 19:01N 08°46' W 018°59'510.8
2017-Dec-31 18:30N 08°50' W 019°03'510.5
2017-Dec-31 18:00N 08°53' W 019°07'710.6
2017-Dec-31 17:20N 08°58' W 019°12'510.8
2017-Dec-31 16:50N 09°02' W 019°16'410.6
2017-Dec-31 16:26N 09°05' W 019°19'410.5
2017-Dec-31 16:00N 09°07' W 019°23'510.6
2017-Dec-31 15:30N 09°11' W 019°27'610.6
2017-Dec-31 14:58N 09°15' W 019°31'510.7
2017-Dec-31 14:30N 09°18' W 019°35'510.6
2017-Dec-31 14:00N 09°22' W 019°38'510.6
2017-Dec-31 13:30N 09°26' W 019°42'910.5
2017-Dec-31 12:40N 09°32' W 019°49'410.5
2017-Dec-31 12:17N 09°34' W 019°52'310.5
2017-Dec-31 11:58N 09°36' W 019°54'7310.2
2017-Dec-31 04:51N 10°45' W 020°20'  
2017-Dec-26 20:23N 27°40' W 015°19'410.5
2017-Dec-26 20:00N 27°44' W 015°17'510.3
2017-Dec-26 19:30N 27°49' W 015°15'510.3
2017-Dec-26 19:00N 27°54' W 015°13'5 9.6
2017-Dec-26 18:30N 27°58' W 015°12'510.5
2017-Dec-26 18:00N 28°02' W 015°16'611.4
2017-Dec-26 17:30N 28°07' W 015°20'1 2.3
2017-Dec-26 17:00N 28°08' W 015°21'2 4.7
2017-Dec-26 16:30N 28°09' W 015°20'611.4
2017-Dec-26 16:00N 28°15' W 015°17'713.1
2017-Dec-26 15:30N 28°21' W 015°16'713.4
2017-Dec-26 15:00N 28°28' W 015°15'713.2
2017-Dec-26 14:30N 28°34' W 015°14'713.0
2017-Dec-26 14:00N 28°41' W 015°12'613.0
2017-Dec-26 13:30N 28°47' W 015°11'  

Dump ship's entire track history